Latest Weather Observations for Barimunya

IDW60801

Issued at 4:04 pm WST Saturday 21 January 2017 (issued every 30 minutes, with the page automatically refreshed every 10 minutes)

About weather observations | Map of weather stations | Latest weather observations for WA | Other Formats
Station Details ID: 505053 Name: BARIMUNYA Lat: -22.67 Lon: 119.16 Height: 629.17 m
Data from the previous 72 hours. | See also: Recent months for locations in Western Australia
Date/Time
WST
Temp
°C
App
Temp
°C
Dew
Point
°C
Rel
Hum
%
Delta-T
°C
Wind Press
QNH
hPa
Press
MSL
hPa
Rain since
9am
mm
Dir  Spd
km/h
Gust
km/h
Spd
kts
Gust
kts
21/04:00pm 32.2 35.1 19.8 48 8.4 NNE 4 9 2 5 1006.9 1001.2 0.0
21/03:30pm 31.8 34.1 19.4 47 8.3 N 6 13 3 7 1007.2 1001.5 0.0
21/03:00pm 32.2 34.1 19.8 48 8.4 N 9 17 5 9 1007.5 1001.8 0.0
21/02:30pm 32.5 34.1 20.7 49 8.1 NNW 13 20 7 11 1007.7 1002.0 0.0
21/02:00pm 32.4 33.3 20.0 48 8.4 NNW 15 26 8 14 1007.9 1002.2 0.0
21/01:30pm 32.1 34.8 21.3 53 7.4 W 9 15 5 8 1008.2 1002.5 0.0
21/01:00pm 31.4 34.8 21.6 56 6.8 NNW 6 13 3 7 1008.6 1003.0 0.0
21/12:30pm 29.7 33.2 22.2 64 5.2 NNE 7 11 4 6 1009.0 1003.3 0.0
21/12:00pm 29.7 32.9 22.4 65 5.1 NNW 9 13 5 7 1009.1 1003.4 0.0
21/11:30am 29.1 32.6 22.8 69 4.4 NE 9 15 5 8 1009.4 1003.7 0.0
21/11:00am 28.4 32.2 21.7 67 4.6 NNW 4 9 2 5 1009.8 1004.1 0.0
21/10:30am 27.4 32.1 21.9 72 3.8 CALM 0 6 0 3 1010.0 1004.4 0.0
21/10:00am 26.8 30.5 22.2 76 3.2 SW 6 11 3 6 1010.0 1004.4 0.0
21/09:30am 26.5 29.3 22.3 78 2.9 SW 11 17 6 9 1010.0 1004.4 0.0
21/09:00am 26.4 29.3 21.8 76 3.1 W 9 13 5 7 1009.8 1004.1 13.8
21/08:30am 26.4 29.2 21.6 75 3.3 W 9 11 5 6 1009.6 1003.9 13.8
21/08:00am 26.1 28.2 21.7 77 3.0 W 13 17 7 9 1009.5 1003.8 13.8
21/07:30am 25.3 27.5 21.8 81 2.4 WNW 13 19 7 10 1009.2 1003.5 13.8
21/07:00am 24.1 26.1 21.6 86 1.7 WNW 13 19 7 10 1009.0 1003.3 11.8
21/06:30am 23.7 24.7 21.8 89 1.3 WNW 19 24 10 13 1008.5 1002.9 11.8
21/06:00am 23.0 24.7 21.6 92 0.9 W 15 20 8 11 1008.6 1003.0 11.8
21/05:30am 23.1 24.4 21.7 92 0.9 W 17 22 9 12 1008.3 1002.6 11.8
21/05:00am 23.3 25.3 22.3 94 0.7 W 15 19 8 10 1008.1 1002.4 11.8
21/04:30am 23.3 25.6 22.1 93 0.8 WNW 13 15 7 8 1008.0 1002.3 11.8
21/04:00am 23.3 26.6 22.5 95 0.5 WNW 9 13 5 7 1007.9 1002.2 11.8
21/03:30am 23.3 26.5 22.3 94 0.7 WNW 9 11 5 6 1007.8 1002.1 11.8
21/03:00am 23.3 26.6 22.5 95 0.5 WNW 9 11 5 6 1007.8 1002.1 11.8
21/02:30am 23.3 28.1 22.1 93 0.8 CALM 0 0 0 0 1008.0 1002.3 11.8
21/02:00am 23.2 28.0 22.2 94 0.7 CALM 0 0 0 0 1008.4 1002.7 11.8
21/01:30am 23.0 27.5 22.2 95 0.5 WNW 2 7 1 4 1008.7 1003.1 11.8
21/01:07am 22.8 25.5 22.1 96 0.5 W 11 13 6 7 1009.1 1003.4 11.8
21/01:00am 22.9 25.6 22.1 95 0.5 W 11 13 6 7 1009.2 1003.5 11.8
21/12:30am 22.8 26.4 22.1 96 0.5 N 6 7 3 4 1009.3 1003.6 11.8
21/12:00am 22.7 25.3 22.0 96 0.5 NNE 11 15 6 8 1009.3 1003.6 11.8
 
Date/Time
WST
Temp
°C
App
Temp
°C
Dew
Point
°C
Rel
Hum
%
Delta-T
°C
Wind Press
QNH
hPa
Press
MSL
hPa
Rain since
9am
mm
Dir  Spd
km/h
Gust
km/h
Spd
kts
Gust
kts
20/11:58pm 22.7 25.3 22.0 96 0.5 NNE 11 15 6 8 1009.3 1003.6 11.8
20/11:30pm 22.7 24.5 21.9 95 0.5 NNE 15 20 8 11 1009.3 1003.6 11.6
20/11:00pm 22.8 25.0 21.8 94 0.7 NNE 13 19 7 10 1009.5 1003.8 11.0
20/10:30pm 23.3 25.6 22.1 93 0.8 NE 13 19 7 10 1009.9 1004.2 11.0
20/10:00pm 24.2 27.9 22.5 90 1.2 ENE 7 9 4 5 1009.8 1004.1 11.0
20/09:30pm 23.9 26.4 22.5 92 1.0 NE 13 17 7 9 1009.4 1003.7 11.0
20/09:00pm 24.0 27.8 22.8 93 0.8 NNE 7 11 4 6 1009.5 1003.8 11.0
20/08:30pm 24.2 28.0 22.8 92 1.0 ESE 7 13 4 7 1009.2 1003.5 10.8
20/08:00pm 24.0 26.9 21.7 87 1.6 NW 9 17 5 9 1008.1 1002.4 10.6
20/07:30pm 23.9 27.6 22.2 90 1.2 NNW 6 7 3 4 1008.2 1002.5 10.4
20/07:00pm 24.2 26.9 22.1 88 1.4 SW 11 20 6 11 1007.9 1002.2 9.0
20/06:30pm 25.5 27.7 21.8 80 2.5 WSW 13 17 7 9 1007.5 1001.8 9.0
20/06:00pm 25.8 28.1 22.1 80 2.5 SW 13 17 7 9 1006.7 1001.0 8.8
20/05:30pm 25.6 27.7 21.7 79 2.7 WSW 13 19 7 10 1006.2 1000.5 8.8
20/05:00pm 26.0 28.0 22.3 80 2.5 WSW 15 20 8 11 1005.8 1000.1 8.8
20/04:30pm 25.8 25.4 22.3 81 2.4 W 28 41 15 22 1005.3 999.6 8.8
20/04:00pm 27.7 31.8 23.3 77 3.1 NNW 7 9 4 5 1005.0 999.3 8.8
20/03:30pm 26.3 29.2 22.4 79 2.7 N 11 15 6 8 1004.9 999.2 8.8
20/03:00pm 25.4 28.4 24.0 92 1.0 NNE 15 26 8 14 1005.0 999.3 8.6
20/02:49pm 24.9 27.8 23.9 94 0.7 N 15 26 8 14 1005.3 999.6 8.4
20/02:30pm 23.6 23.9 22.9 96 0.5 SSE 26 46 14 25 1006.5 1000.8 7.0
20/02:21pm 24.5 23.7 23.3 93 0.8 SSE 33 46 18 25 1006.1 1000.4 1.4
20/02:19pm 25.1 25.1 23.7 92 1.0 SSE 30 41 16 22 1006.0 1000.3 1.0
20/02:00pm 30.1 31.4 21.7 60 5.8 NE 17 33 9 18 1005.8 1000.1 0.0
20/01:30pm 33.5 35.2 22.3 52 7.8 N 17 24 9 13 1005.1 999.4 0.0
20/01:00pm 32.9 35.7 23.0 56 7.0 N 13 20 7 11 1005.8 1000.1 0.0
20/12:30pm 32.1 34.8 22.2 56 6.9 NNE 11 20 6 11 1006.3 1000.6 0.0
20/12:00pm 32.2 34.4 20.5 50 8.0 NNW 9 17 5 9 1006.6 1000.9 0.0
20/11:30am 32.2 35.0 20.5 50 8.0 E 6 11 3 6 1006.9 1001.2 0.0
20/11:00am 31.4 34.4 21.3 55 7.0 SW 7 13 4 7 1007.2 1001.5 0.0
20/10:30am 31.1 33.6 21.0 55 6.9 SE 9 17 5 9 1007.5 1001.8 0.0
20/10:00am 30.9 34.1 21.7 58 6.4 SE 7 13 4 7 1007.6 1001.9 0.0
20/09:30am 29.7 33.2 21.9 63 5.4 WSW 6 11 3 6 1007.7 1002.0 0.0
20/09:00am 28.4 31.3 21.7 67 4.6 SW 9 11 5 6 1007.7 1002.0 4.6
20/08:30am 27.6 31.7 22.3 73 3.7 N 4 9 2 5 1007.7 1002.0 4.6
20/08:00am 26.7 30.4 22.5 78 2.9 N 7 9 4 5 1007.8 1002.1 4.6
20/07:30am 26.0 29.8 22.7 82 2.3 N 7 9 4 5 1007.6 1001.9 4.6
20/07:00am 25.1 28.6 22.8 87 1.6 N 9 11 5 6 1007.4 1001.7 4.6
20/06:30am 24.7 28.0 22.6 88 1.4 N 9 11 5 6 1007.4 1001.7 4.6
20/06:00am 24.3 28.0 22.6 90 1.2 N 7 11 4 6 1007.0 1001.4 4.6
20/05:30am 24.2 27.5 22.6 91 1.1 N 9 13 5 7 1006.6 1000.9 4.6
20/05:00am 24.3 28.1 22.7 91 1.1 NNE 7 11 4 6 1006.3 1000.6 4.6
20/04:30am 24.6 28.0 22.7 89 1.3 ENE 9 13 5 7 1006.2 1000.5 4.6
20/04:00am 25.1 28.2 22.8 87 1.6 SE 11 15 6 8 1006.1 1000.4 4.6
20/03:30am 25.2 30.2 22.5 85 1.9 CALM 0 0 0 0 1005.8 1000.1 4.6
20/03:00am 25.1 30.2 22.6 86 1.7 CALM 0 0 0 0 1005.8 1000.1 4.6
20/02:30am 24.9 30.0 22.6 87 1.6 CALM 0 0 0 0 1005.8 1000.1 4.6
20/02:00am 24.9 28.6 22.6 87 1.6 NW 7 11 4 6 1005.7 1000.0 4.6
20/01:30am 24.9 29.3 22.8 88 1.4 NW 4 9 2 5 1005.9 1000.2 4.6
20/01:00am 25.5 28.8 21.4 78 2.8 NW 6 7 3 4 1006.1 1000.4 4.6
20/12:30am 25.2 29.8 21.7 81 2.4 CALM 0 0 0 0 1006.2 1000.5 4.6
20/12:00am 25.5 28.8 21.4 78 2.8 WNW 6 13 3 7 1006.6 1000.9 4.6
 
Date/Time
WST
Temp
°C
App
Temp
°C
Dew
Point
°C
Rel
Hum
%
Delta-T
°C
Wind Press
QNH
hPa
Press
MSL
hPa
Rain since
9am
mm
Dir  Spd
km/h
Gust
km/h
Spd
kts
Gust
kts
19/11:30pm 25.3 28.1 21.6 80 2.5 NW 9 11 5 6 1006.8 1001.1 4.6
19/11:00pm 25.5 28.1 21.2 77 2.9 NNW 9 15 5 8 1007.5 1001.8 4.6
19/10:30pm 25.4 27.8 20.9 76 3.0 NNW 9 11 5 6 1007.5 1001.8 4.6
19/10:00pm 25.1 28.4 21.4 80 2.5 W 6 9 3 5 1007.8 1002.1 4.6
19/09:30pm 25.2 28.3 21.1 78 2.8 S 6 11 3 6 1007.9 1002.2 4.6
19/09:00pm 25.1 27.0 20.6 76 3.0 SSE 11 15 6 8 1008.1 1002.4 4.6
19/08:30pm 25.4 27.5 20.9 76 3.0 S 11 15 6 8 1008.3 1002.6 4.6
19/08:00pm 25.0 26.5 20.5 76 3.0 SW 13 19 7 10 1008.1 1002.4 4.6
19/07:30pm 25.2 28.4 23.1 88 1.5 W 11 15 6 8 1007.0 1001.4 4.6
19/07:00pm 25.2 28.3 22.9 87 1.6 SW 11 15 6 8 1006.8 1001.1 4.2
19/06:30pm 25.0 28.0 23.4 91 1.1 SW 13 17 7 9 1006.8 1001.1 4.2
19/06:00pm 24.9 30.5 23.5 92 1.0 CALM 0 6 0 3 1006.3 1000.6 4.2
19/05:30pm 24.1 29.2 22.7 92 1.0 CALM 0 4 0 2 1006.5 1000.8 3.6
19/05:00pm 23.9 24.6 22.3 91 1.1 SE 22 30 12 16 1006.8 1001.1 1.8
19/04:30pm 27.6 29.7 22.5 74 3.5 SSW 15 39 8 21 1006.1 1000.4 0.8
19/04:29pm 28.0 30.6 22.7 73 3.7 SW 13 39 7 21 1006.1 1000.4 0.8
19/04:00pm 29.4 31.5 22.4 66 4.9 WNW 15 19 8 10 1005.3 999.6 0.8
19/03:30pm 29.0 30.6 22.2 66 4.7 NW 17 26 9 14 1005.9 1000.2 0.8
19/03:00pm 30.0 32.5 23.2 67 4.8 NW 15 20 8 11 1006.1 1000.4 0.8
19/02:30pm 29.1 32.8 22.6 68 4.5 W 7 15 4 8 1006.0 1000.3 0.8
19/02:00pm 27.9 31.7 22.8 74 3.6 NW 7 11 4 6 1006.6 1000.9 0.8
19/01:30pm 26.7 29.1 23.6 83 2.2 SSW 17 26 9 14 1006.9 1001.2 0.6
19/01:00pm 30.4 31.3 22.0 60 5.8 W 20 26 11 14 1007.2 1001.5 0.0
19/12:30pm 30.5 31.5 21.0 57 6.5 WNW 17 24 9 13 1007.7 1002.0 0.0
19/12:00pm 30.6 33.4 20.8 56 6.7 W 7 13 4 7 1008.2 1002.5 0.0
19/11:30am 30.0 32.8 20.8 57 6.3 S 7 17 4 9 1008.5 1002.9 0.0
19/11:00am 30.4 33.3 20.6 55 6.7 S 6 13 3 7 1008.7 1003.1 0.0
19/10:30am 29.3 32.2 21.0 61 5.7 S 7 17 4 9 1009.1 1003.4 0.0
19/10:00am 28.6 31.1 21.1 64 5.1 SSW 9 17 5 9 1009.3 1003.6 0.0
19/09:30am 28.1 30.2 20.9 65 4.9 WSW 11 17 6 9 1009.3 1003.6 0.0
19/09:00am 27.2 30.3 21.0 69 4.2 SW 6 13 3 7 1009.4 1003.7 6.2
19/08:30am 26.5 29.3 20.8 71 3.8 S 7 13 4 7 1009.4 1003.7 6.2
19/08:00am 26.3 28.5 21.1 73 3.5 SSW 11 15 6 8 1009.3 1003.6 6.2
19/07:30am 25.5 27.7 20.5 74 3.3 SSW 9 15 5 8 1009.4 1003.7 6.2
19/07:00am 24.9 29.2 21.2 80 2.5 CALM 0 0 0 0 1009.3 1003.6 6.2
19/06:30am 23.8 28.2 21.3 86 1.7 CALM 0 0 0 0 1009.2 1003.5 6.2
19/06:00am 23.0 27.5 21.5 91 1.0 CALM 0 0 0 0 1008.9 1003.2 6.2
19/05:30am 22.8 27.3 21.6 93 0.8 CALM 0 0 0 0 1008.6 1003.0 6.2
19/05:00am 22.9 27.5 21.7 93 0.8 CALM 0 0 0 0 1008.4 1002.7 6.2
19/04:30am 23.0 27.7 22.0 94 0.7 CALM 0 0 0 0 1008.1 1002.4 6.2
19/04:00am 23.0 27.7 22.0 94 0.7 CALM 0 0 0 0 1007.8 1002.1 6.2
19/03:30am 23.0 26.5 21.8 93 0.8 W 6 9 3 5 1007.8 1002.1 6.2
19/03:00am 23.1 26.0 21.7 92 0.9 WSW 9 11 5 6 1007.7 1002.0 6.2
19/02:30am 23.1 27.3 21.7 92 0.9 SW 2 9 1 5 1007.4 1001.7 6.2
19/02:00am 23.2 26.7 21.8 92 1.0 SW 6 7 3 4 1007.4 1001.7 6.2
19/01:30am 23.2 27.1 21.8 92 0.9 SW 4 7 2 4 1007.4 1001.7 6.2
19/01:00am 23.2 25.7 21.8 92 1.0 SW 11 15 6 8 1007.8 1002.1 6.2
19/12:30am 23.2 26.5 21.8 92 0.9 W 7 11 4 6 1008.0 1002.3 6.2
19/12:00am 23.3 25.8 21.7 91 1.1 W 11 15 6 8 1008.4 1002.7 6.2
 
Date/Time
WST
Temp
°C
App
Temp
°C
Dew
Point
°C
Rel
Hum
%
Delta-T
°C
Wind Press
QNH
hPa
Press
MSL
hPa
Rain since
9am
mm
Dir  Spd
km/h
Gust
km/h
Spd
kts
Gust
kts
18/11:30pm 23.4 25.5 21.7 90 1.2 W 13 19 7 10 1009.1 1003.4 6.2
18/11:00pm 23.4 25.9 21.8 91 1.1 WNW 11 19 6 10 1009.6 1003.9 6.2
18/10:30pm 23.5 23.6 21.8 90 1.2 W 24 30 13 16 1010.4 1004.8 6.2
18/10:00pm 23.9 24.2 22.2 90 1.2 W 24 30 13 16 1010.8 1005.1 6.2
18/09:38pm 24.0 25.6 22.8 93 0.8 W 19 26 10 14 1011.2 1005.5 6.2
18/09:30pm 23.9 25.9 22.9 94 0.7 WNW 17 20 9 11 1011.3 1005.6 6.2
18/09:12pm 23.7 26.0 22.7 94 0.7 WNW 15 19 8 10 1011.3 1005.6 6.2
18/09:00pm 23.7 26.0 22.7 94 0.7 WNW 15 20 8 11 1011.2 1005.5 6.2
18/08:30pm 23.5 25.3 21.9 91 1.1 NNW 15 19 8 10 1010.8 1005.1 6.2
18/08:00pm 23.5 25.2 22.3 93 0.8 N 17 22 9 12 1010.2 1004.6 6.2
18/07:30pm 23.8 26.1 22.8 94 0.7 N 15 17 8 9 1010.0 1004.4 6.2
18/07:00pm 23.9 27.3 22.7 93 0.8 N 9 13 5 7 1009.7 1004.0 6.2
18/06:30pm 23.9 27.4 22.2 90 1.2 WNW 7 11 4 6 1009.2 1003.5 6.2
18/06:00pm 23.9 26.2 22.0 89 1.3 WNW 13 17 7 9 1009.0 1003.3 6.0
18/05:30pm 23.7 27.3 22.1 91 1.1 W 6 9 3 5 1008.2 1002.5 6.0
18/05:00pm 23.6 27.1 22.2 92 1.0 WNW 7 11 4 6 1008.4 1002.7 5.4
18/04:30pm 23.4 26.6 22.4 94 0.7 WNW 9 11 5 6 1008.9 1003.2 4.4

Other Formats:

Comma delimited format used in spreadsheet applications
http://www.bom.gov.au/fwo/IDW60801/IDW60801.99313.axf

JavaScript Object Notation format (JSON) in row-major order
http://www.bom.gov.au/fwo/IDW60801/IDW60801.99313.json